»·PEaware :: N555TT KALW-8W5

N555TT :: KALW-8W5

FLIGHT INFORMATION

Flight Status: Arrived
Operator: Privately registered:
United States
More flights under this callsign
Pilot: Chad L. (27474)
Aircraft: CESSNA 510 CITATION MUSTANG
(C510)
More flights by this aircraft type
Origin: KALW Walla Walla Regl
United States
Destination: 8W5 Apex Airpark
United States
More flights between these airports :: More routes between these airports
Route: WHYTE OLM
File this flight plan on PilotEdge
Remarks:
Altitude:
(Current/Filed)
16,500ft
Speed:
(Current/Filed)
300kts
Departed: 19-May-20 08:28 PM
Arrived: 19-May-20 09:17 PM
Distance/Time
Traveled:
205nm/0:49
Distance/Time
To Go:
Arrived

Flight Plot

Page will automatically refresh every two minutes.

Flight plan parsing failed; only flown route is shown


Map Options




Map Legend


Flown Route
Filed Route
Departure Airport
Arrival Airport
Navaid (VOR, NDB)
Fix

Horizontal Profiles

Position Reports

Time Latitude Longitude Heading Altitude Ground
Speed
19-May-20 20:24 46.094616 -118.278621 305 1198ft 0kts
19-May-20 20:25 46.094831 -118.278861 359 1197ft 3kts
19-May-20 20:26 46.099012 -118.276292 315 1201ft 13kts
19-May-20 20:27 46.084493 -118.293645 219 1338ft 182kts
19-May-20 20:28 46.073734 -118.345898 288 5679ft 149kts
19-May-20 20:29 46.084478 -118.404691 283 8959ft 159kts
19-May-20 20:30 46.095030 -118.467270 283 12076ft 167kts
19-May-20 20:31 46.106020 -118.533026 283 14987ft 175kts
19-May-20 20:32 46.118430 -118.607631 283 16535ft 238kts
19-May-20 20:33 46.136518 -118.717080 282 16506ft 312kts
19-May-20 20:34 46.157075 -118.842211 282 16501ft 327kts
19-May-20 20:35 46.178111 -118.971146 282 16500ft 333kts
19-May-20 20:36 46.199849 -119.105422 282 16501ft 351kts
19-May-20 20:37 46.222179 -119.244468 282 16500ft 357kts
19-May-20 20:38 46.244522 -119.384758 282 16499ft 359kts
19-May-20 20:39 46.266762 -119.525601 282 16499ft 360kts
19-May-20 20:40 46.288690 -119.665663 282 16499ft 360kts
19-May-20 20:41 46.310641 -119.807097 282 16499ft 360kts
19-May-20 20:42 46.332391 -119.948470 282 16499ft 360kts
19-May-20 20:43 46.353979 -120.090033 282 16499ft 360kts
19-May-20 20:44 46.375323 -120.231249 282 16499ft 360kts
19-May-20 20:45 46.396599 -120.373285 282 16499ft 360kts
19-May-20 20:46 46.417578 -120.514613 282 16499ft 360kts
19-May-20 20:47 46.438279 -120.655337 281 16499ft 360kts
19-May-20 20:48 46.456772 -120.782156 281 16499ft 360kts
19-May-20 20:49 46.477293 -120.924111 281 16499ft 360kts
19-May-20 20:50 46.497664 -121.066362 281 16499ft 360kts
19-May-20 20:51 46.517871 -121.208808 281 16499ft 360kts
19-May-20 20:52 46.537877 -121.351180 281 16499ft 360kts
19-May-20 20:53 46.557759 -121.494048 281 16499ft 360kts
19-May-20 20:54 46.577409 -121.636247 282 16497ft 360kts
19-May-20 20:55 46.618448 -121.769164 294 16499ft 360kts
19-May-20 20:56 46.660474 -121.901307 294 16499ft 360kts
19-May-20 20:57 46.702337 -122.033665 294 16499ft 360kts
19-May-20 20:58 46.743247 -122.163685 294 15762ft 350kts
19-May-20 20:59 46.783231 -122.291410 294 15054ft 342kts
19-May-20 21:00 46.822339 -122.416966 294 14349ft 338kts
19-May-20 21:01 46.861081 -122.541966 294 13645ft 334kts
19-May-20 21:02 46.897032 -122.658504 293 12663ft 302kts
19-May-20 21:03 46.930994 -122.769083 293 11656ft 296kts
19-May-20 21:04 46.964525 -122.878759 293 10653ft 293kts
19-May-20 21:05 47.022225 -122.938302 7 9603ft 280kts
19-May-20 21:06 47.093292 -122.894695 25 8591ft 275kts
19-May-20 21:07 47.160302 -122.856091 7 7632ft 267kts
19-May-20 21:08 47.232787 -122.840130 8 6630ft 262kts
19-May-20 21:09 47.306814 -122.822794 8 5673ft 275kts
19-May-20 21:10 47.381255 -122.805094 8 4704ft 270kts
19-May-20 21:11 47.455502 -122.787339 8 4165ft 276kts
19-May-20 21:12 47.524208 -122.770837 8 3210ft 216kts
19-May-20 21:13 47.578985 -122.757624 8 1876ft 192kts
19-May-20 21:14 47.618494 -122.745189 24 1154ft 110kts
19-May-20 21:15 47.647300 -122.735023 8 628ft 100kts
19-May-20 21:16 47.656817 -122.732923 24 528ft 0kts
19-May-20 21:17 47.656817 -122.732923 24 528ft 0kts

Navigation Log

Ident Type
Flight plan parsing failed, navigation log unavailable